createdAt,value
2022-09-04T00:00:08.681Z,2.80
2022-09-04T00:03:15.649Z,1.70
2022-09-04T00:05:52.598Z,1.80
2022-09-04T00:08:42.265Z,2.20
2022-09-04T00:11:21.266Z,1.80
2022-09-04T00:13:58.329Z,1.63
2022-09-04T00:16:39.309Z,1.73
2022-09-04T00:19:17.104Z,2.00
2022-09-04T00:21:54.161Z,2.10
2022-09-04T00:24:28.217Z,1.93
2022-09-04T00:27:05.439Z,1.70
2022-09-04T00:29:48.466Z,1.87
2022-09-04T00:32:34.750Z,1.80
2022-09-04T00:35:14.209Z,1.50
2022-09-04T00:37:49.359Z,1.63
2022-09-04T00:40:27.594Z,1.60
2022-09-04T00:43:35.980Z,1.63
2022-09-04T00:46:52.040Z,1.90
2022-09-04T00:49:57.382Z,1.77
2022-09-04T00:52:58.330Z,1.60
2022-09-04T00:55:50.714Z,1.70
2022-09-04T00:58:51.834Z,1.53
2022-09-04T01:01:25.984Z,1.87
2022-09-04T01:04:23.457Z,1.80
2022-09-04T01:07:14.638Z,2.07
2022-09-04T01:10:20.438Z,1.37
2022-09-04T01:13:02.113Z,1.60
2022-09-04T01:15:41.790Z,1.50
2022-09-04T01:18:19.863Z,2.07
2022-09-04T01:21:11.837Z,1.37
2022-09-04T01:24:18.882Z,3.23
2022-09-04T01:26:57.307Z,1.60
2022-09-04T01:29:39.927Z,1.60
2022-09-04T01:32:19.515Z,1.77
2022-09-04T01:35:02.753Z,2.30
2022-09-04T01:37:44.431Z,1.60
2022-09-04T01:40:42.004Z,1.37
2022-09-04T01:43:17.550Z,1.80
2022-09-04T01:46:35.952Z,1.53
2022-09-04T01:49:14.785Z,1.63
2022-09-04T01:51:55.334Z,1.60
2022-09-04T01:54:51.809Z,1.90
2022-09-04T01:57:38.475Z,8.17
2022-09-04T02:00:13.806Z,1.73
2022-09-04T02:02:56.652Z,1.57
2022-09-04T02:05:37.726Z,5.80
2022-09-04T02:08:27.589Z,1.50
2022-09-04T02:11:07.209Z,2.60
2022-09-04T02:13:53.731Z,9.03
2022-09-04T02:16:35.246Z,2.03
2022-09-04T02:19:16.806Z,2.30
2022-09-04T02:21:56.182Z,1.57
2022-09-04T02:24:40.196Z,1.60
2022-09-04T02:27:20.644Z,1.60
2022-09-04T02:29:59.634Z,1.93
2022-09-04T02:32:38.845Z,1.33
2022-09-04T02:35:18.025Z,1.50
2022-09-04T02:38:08.723Z,1.50
2022-09-04T02:40:51.109Z,1.30
2022-09-04T02:43:47.346Z,1.17
2022-09-04T02:46:27.336Z,1.40
2022-09-04T02:49:13.237Z,1.43
2022-09-04T02:52:01.935Z,1.50
2022-09-04T02:54:57.693Z,1.20
2022-09-04T02:57:41.392Z,1.10
2022-09-04T03:00:15.430Z,1.27
2022-09-04T03:02:56.595Z,1.47
2022-09-04T03:05:32.096Z,1.50
2022-09-04T03:08:08.934Z,1.53
2022-09-04T03:10:45.948Z,1.30
2022-09-04T03:13:24.246Z,1.50
2022-09-04T03:15:58.283Z,1.43
2022-09-04T03:18:35.204Z,1.30
2022-09-04T03:21:14.638Z,1.53
2022-09-04T03:23:51.511Z,1.57
2022-09-04T03:26:27.757Z,1.70
2022-09-04T03:29:10.168Z,1.60
2022-09-04T03:31:51.038Z,1.40
2022-09-04T03:34:43.404Z,1.30
2022-09-04T03:37:42.021Z,1.50
2022-09-04T03:40:25.880Z,1.30
2022-09-04T03:43:21.888Z,1.23
2022-09-04T03:46:02.101Z,1.30
2022-09-04T03:48:57.993Z,1.40
2022-09-04T03:51:40.005Z,1.43
2022-09-04T03:54:33.465Z,1.70
2022-09-04T03:57:25.090Z,1.40
2022-09-04T04:00:08.317Z,1.60
2022-09-04T04:03:00.755Z,1.50
2022-09-04T04:05:59.842Z,1.50
2022-09-04T04:08:51.140Z,1.33
2022-09-04T04:12:10.600Z,1.20
2022-09-04T04:15:04.212Z,1.40
2022-09-04T04:18:05.340Z,1.23
2022-09-04T04:21:00.503Z,1.30
2022-09-04T04:24:21.244Z,1.37
2022-09-04T04:27:09.703Z,1.10
2022-09-04T04:30:05.793Z,1.30
2022-09-04T04:32:51.204Z,1.53
2022-09-04T04:35:30.274Z,1.30
2022-09-04T04:38:27.549Z,1.30
2022-09-04T04:41:30.833Z,1.47
2022-09-04T04:44:14.169Z,1.30
2022-09-04T04:47:01.910Z,1.30
2022-09-04T04:49:57.720Z,1.60
2022-09-04T04:52:45.650Z,1.30
2022-09-04T04:55:31.299Z,1.40
2022-09-04T04:58:29.976Z,1.67
2022-09-04T05:01:15.617Z,1.50
2022-09-04T05:04:07.716Z,1.33
2022-09-04T05:06:43.461Z,1.57
2022-09-04T05:09:26.740Z,1.27
2022-09-04T05:12:04.528Z,1.40
2022-09-04T05:14:47.383Z,1.17
2022-09-04T05:17:38.625Z,1.50
2022-09-04T05:20:27.370Z,1.20
2022-09-04T05:23:14.422Z,1.20
2022-09-04T05:25:53.968Z,1.40
2022-09-04T05:28:36.293Z,1.30
2022-09-04T05:31:18.114Z,1.20
2022-09-04T05:34:00.245Z,1.37
2022-09-04T05:36:42.237Z,1.47
2022-09-04T05:39:25.817Z,1.23
2022-09-04T05:42:11.756Z,1.23
2022-09-04T05:44:58.256Z,1.50
2022-09-04T05:47:43.063Z,1.63
2022-09-04T05:50:42.590Z,1.30
2022-09-04T05:53:43.638Z,1.53
2022-09-04T05:56:51.487Z,1.80
2022-09-04T05:59:46.064Z,1.47
2022-09-04T06:02:42.412Z,1.67
2022-09-04T06:05:51.839Z,1.70
2022-09-04T06:08:41.570Z,1.57
2022-09-04T06:11:42.052Z,1.70
2022-09-04T06:14:37.883Z,1.70
2022-09-04T06:17:29.467Z,1.57
2022-09-04T06:20:20.007Z,1.60
2022-09-04T06:23:32.975Z,1.63
2022-09-04T06:26:36.880Z,1.80
2022-09-04T06:29:47.818Z,1.83
2022-09-04T06:33:08.114Z,1.83
2022-09-04T06:36:09.073Z,1.70
2022-09-04T06:38:54.462Z,1.90
2022-09-04T06:41:48.671Z,2.00
2022-09-04T06:44:34.639Z,2.00
2022-09-04T06:47:23.042Z,2.03
2022-09-04T06:50:20.072Z,2.20
2022-09-04T06:53:09.165Z,2.30
2022-09-04T06:55:58.166Z,2.43
2022-09-04T06:59:08.902Z,2.03
2022-09-04T07:01:52.344Z,2.30
2022-09-04T07:04:44.232Z,2.03
2022-09-04T07:07:23.609Z,2.20
2022-09-04T07:10:01.707Z,2.40
2022-09-04T07:13:13.216Z,2.20
2022-09-04T07:15:59.103Z,2.30
2022-09-04T07:19:11.577Z,2.20
2022-09-04T07:21:54.819Z,2.20
2022-09-04T07:24:58.108Z,2.67
2022-09-04T07:27:43.255Z,2.10
2022-09-04T07:30:16.207Z,2.50
2022-09-04T07:32:54.419Z,2.50
2022-09-04T07:35:34.400Z,2.60
2022-09-04T07:38:20.247Z,2.50
2022-09-04T07:40:54.260Z,2.47
2022-09-04T07:43:43.573Z,2.50
2022-09-04T07:46:22.327Z,2.70
2022-09-04T07:48:57.996Z,2.80
2022-09-04T07:51:37.818Z,2.33
2022-09-04T07:54:38.617Z,2.47
2022-09-04T07:57:56.622Z,2.60
2022-09-04T08:00:25.488Z,3.20
2022-09-04T08:03:33.715Z,2.73
2022-09-04T08:06:15.278Z,2.63
2022-09-04T08:09:09.544Z,2.67
2022-09-04T08:12:05.966Z,2.50
2022-09-04T08:14:55.724Z,2.30
2022-09-04T08:17:51.950Z,2.83
2022-09-04T08:20:39.693Z,2.77
2022-09-04T08:23:42.881Z,2.40
2022-09-04T08:26:24.222Z,3.43
2022-09-04T08:29:21.248Z,2.93
2022-09-04T08:32:08.762Z,2.20
2022-09-04T08:34:57.719Z,2.83
2022-09-04T08:37:33.702Z,2.50
2022-09-04T08:40:46.561Z,2.72
2022-09-04T08:43:39.407Z,2.72
2022-09-04T08:46:38.376Z,2.90
2022-09-04T08:49:56.312Z,3.17
2022-09-04T08:53:11.298Z,3.10
2022-09-04T08:56:00.938Z,2.88
2022-09-04T08:59:23.411Z,2.10
2022-09-04T09:02:38.198Z,2.67
2022-09-04T09:05:59.638Z,2.33
2022-09-04T09:09:23.399Z,2.55
2022-09-04T09:12:42.050Z,2.60
2022-09-04T09:15:39.918Z,2.60
2022-09-04T09:18:47.399Z,2.83
2022-09-04T09:21:39.751Z,2.50
2022-09-04T09:24:43.355Z,2.55
2022-09-04T09:27:56.972Z,2.50
2022-09-04T09:30:26.251Z,2.22
2022-09-04T09:33:54.614Z,1.92
2022-09-04T09:37:03.286Z,2.92
2022-09-04T09:40:05.570Z,2.20
2022-09-04T09:43:11.257Z,2.28
2022-09-04T09:46:10.259Z,2.22
2022-09-04T09:49:27.269Z,2.42
2022-09-04T09:53:01.288Z,2.30
2022-09-04T09:56:15.043Z,2.15
2022-09-04T09:59:45.905Z,2.45
2022-09-04T10:03:04.077Z,2.20
2022-09-04T10:06:22.839Z,1.98
2022-09-04T10:09:30.000Z,2.22
2022-09-04T10:13:00.673Z,1.70
2022-09-04T10:16:45.849Z,2.05
2022-09-04T10:19:51.416Z,2.15
2022-09-04T10:23:17.386Z,2.10
2022-09-04T10:26:26.997Z,2.22
2022-09-04T10:29:50.584Z,2.42
2022-09-04T10:32:51.209Z,2.30
2022-09-04T10:35:32.476Z,2.17
2022-09-04T10:38:37.324Z,2.05
2022-09-04T10:42:05.549Z,2.10
2022-09-04T10:45:09.118Z,2.33
2022-09-04T10:48:42.898Z,2.20
2022-09-04T10:52:00.120Z,2.22
2022-09-04T10:55:02.822Z,2.50
2022-09-04T10:58:10.589Z,2.30
2022-09-04T11:01:04.011Z,2.28
2022-09-04T11:04:13.945Z,2.72
2022-09-04T11:07:18.754Z,2.10
2022-09-04T11:10:09.502Z,2.17
2022-09-04T11:13:10.039Z,2.50
2022-09-04T11:16:25.343Z,2.28
2022-09-04T11:19:32.307Z,2.22
2022-09-04T11:22:55.196Z,2.30
2022-09-04T11:26:06.764Z,2.05
2022-09-04T11:29:12.378Z,2.45
2022-09-04T11:32:12.255Z,1.98
2022-09-04T11:35:29.734Z,2.33
2022-09-04T11:38:09.448Z,2.33
2022-09-04T11:41:32.709Z,2.08
2022-09-04T11:44:27.011Z,2.10
2022-09-04T11:47:54.491Z,2.05
2022-09-04T11:50:46.201Z,1.98
2022-09-04T11:53:43.789Z,2.45
2022-09-04T11:56:55.448Z,2.67
2022-09-04T11:59:47.348Z,2.28
2022-09-04T12:03:13.977Z,2.17
2022-09-04T12:06:08.316Z,2.08
2022-09-04T12:09:11.836Z,2.10
2022-09-04T12:12:25.424Z,2.53
2022-09-04T12:15:16.692Z,2.03
2022-09-04T12:18:33.584Z,2.28
2022-09-04T12:21:43.412Z,2.17
2022-09-04T12:24:42.740Z,2.00
2022-09-04T12:27:53.520Z,2.30
2022-09-04T12:30:23.666Z,2.60
2022-09-04T12:33:46.301Z,2.40
2022-09-04T12:36:46.897Z,2.20
2022-09-04T12:39:39.503Z,2.50
2022-09-04T12:42:17.817Z,2.38
2022-09-04T12:45:02.166Z,2.33
2022-09-04T12:47:49.154Z,2.80
2022-09-04T12:50:34.531Z,2.38
2022-09-04T12:53:37.121Z,2.20
2022-09-04T12:56:13.622Z,2.30
2022-09-04T12:59:06.867Z,2.67
2022-09-04T13:01:59.309Z,2.42
2022-09-04T13:04:41.207Z,2.00
2022-09-04T13:07:31.593Z,2.17
2022-09-04T13:10:21.091Z,2.58
2022-09-04T13:13:07.315Z,2.03
2022-09-04T13:15:54.843Z,2.20
2022-09-04T13:18:50.023Z,1.85
2022-09-04T13:21:40.014Z,2.28
2022-09-04T13:24:35.767Z,2.15
2022-09-04T13:27:26.564Z,1.75
2022-09-04T13:30:08.020Z,2.30
2022-09-04T13:32:56.424Z,2.47
2022-09-04T13:35:44.488Z,2.13
2022-09-04T13:38:40.936Z,2.70
2022-09-04T13:42:06.271Z,2.60
2022-09-04T13:44:59.817Z,2.10
2022-09-04T13:47:40.299Z,2.20
2022-09-04T13:50:17.304Z,2.38
2022-09-04T13:52:54.413Z,2.60
2022-09-04T13:55:27.349Z,2.00
2022-09-04T13:58:10.867Z,2.40
2022-09-04T14:00:47.290Z,2.05
2022-09-04T14:03:31.792Z,1.95
2022-09-04T14:06:01.145Z,2.50
2022-09-04T14:08:31.419Z,2.03
2022-09-04T14:11:30.211Z,2.00
2022-09-04T14:14:45.826Z,2.42
2022-09-04T14:17:13.706Z,2.05
2022-09-04T14:19:57.634Z,2.22
2022-09-04T14:22:44.964Z,2.40
2022-09-04T14:25:22.693Z,2.10
2022-09-04T14:28:03.913Z,1.70
2022-09-04T14:30:45.519Z,2.30
2022-09-04T14:33:34.605Z,2.45
2022-09-04T14:36:18.504Z,2.30
2022-09-04T14:39:16.589Z,2.30
2022-09-04T14:42:12.348Z,2.35
2022-09-04T14:45:16.322Z,2.10
2022-09-04T14:47:54.862Z,2.72
2022-09-04T14:50:28.505Z,2.30
2022-09-04T14:53:00.814Z,2.25
2022-09-04T14:55:32.008Z,2.20
2022-09-04T14:58:10.137Z,2.35
2022-09-04T15:01:01.332Z,2.00
2022-09-04T15:03:37.028Z,2.50
2022-09-04T15:06:16.264Z,1.92
2022-09-04T15:08:46.394Z,2.42
2022-09-04T15:11:31.843Z,2.30
2022-09-04T15:14:07.441Z,2.10
2022-09-04T15:16:49.840Z,2.92
2022-09-04T15:19:47.625Z,2.08
2022-09-04T15:22:25.244Z,2.78
2022-09-04T15:25:02.062Z,2.28
2022-09-04T15:27:44.557Z,1.92
2022-09-04T15:30:21.634Z,1.85
2022-09-04T15:32:51.808Z,1.85
2022-09-04T15:35:32.799Z,2.10
2022-09-04T15:38:11.252Z,2.20
2022-09-04T15:41:05.856Z,2.00
2022-09-04T15:43:42.693Z,2.20
2022-09-04T15:46:22.968Z,2.13
2022-09-04T15:49:13.786Z,2.42
2022-09-04T15:51:51.638Z,2.38
2022-09-04T15:54:51.157Z,2.30
2022-09-04T15:57:26.165Z,2.30
2022-09-04T16:00:02.247Z,2.15
2022-09-04T16:02:43.605Z,2.38
2022-09-04T16:05:23.621Z,3.00
2022-09-04T16:08:04.121Z,2.25
2022-09-04T16:10:50.075Z,2.90
2022-09-04T16:13:41.627Z,3.05
2022-09-04T16:16:18.320Z,3.15
2022-09-04T16:19:02.474Z,1.92
2022-09-04T16:21:45.457Z,2.10
2022-09-04T16:24:20.661Z,2.20
2022-09-04T16:26:54.429Z,2.17
2022-09-04T16:29:36.327Z,1.88
2022-09-04T16:32:12.202Z,2.35
2022-09-04T16:34:49.849Z,2.20
2022-09-04T16:37:28.450Z,2.38
2022-09-04T16:40:14.626Z,2.65
2022-09-04T16:42:51.007Z,2.53
2022-09-04T16:45:26.229Z,2.15
2022-09-04T16:48:12.703Z,2.15
2022-09-04T16:51:29.217Z,2.00
2022-09-04T16:54:04.117Z,2.40
2022-09-04T16:56:40.510Z,2.10
2022-09-04T16:59:25.595Z,2.45
2022-09-04T17:02:02.443Z,2.67
2022-09-04T17:04:40.336Z,2.80
2022-09-04T17:07:21.423Z,2.97
2022-09-04T17:10:01.690Z,2.60
2022-09-04T17:12:52.582Z,2.38
2022-09-04T17:15:33.670Z,2.70
2022-09-04T17:18:09.581Z,2.72
2022-09-04T17:22:08.496Z,2.83
2022-09-04T17:28:58.372Z,2.53
2022-09-04T17:29:00.321Z,2.78
2022-09-04T17:29:41.717Z,2.38
2022-09-04T17:33:04.166Z,2.78
2022-09-04T17:40:38.421Z,2.75
2022-09-04T17:40:47.149Z,2.90
2022-09-04T17:41:39.556Z,2.35
2022-09-04T17:44:33.921Z,2.70
2022-09-04T17:47:26.326Z,3.00
2022-09-04T17:49:55.796Z,2.92
2022-09-04T17:52:28.245Z,2.60
2022-09-04T17:55:06.134Z,2.90
2022-09-04T17:57:57.336Z,2.95
2022-09-04T18:00:34.342Z,2.95
2022-09-04T18:03:13.736Z,3.38
2022-09-04T18:05:53.608Z,2.67
2022-09-04T18:08:32.491Z,2.88
2022-09-04T18:11:12.101Z,3.35
2022-09-04T18:13:53.309Z,3.13
2022-09-04T18:17:12.252Z,3.10
2022-09-04T18:19:46.288Z,3.00
2022-09-04T18:22:33.626Z,3.53
2022-09-04T18:25:16.382Z,3.28
2022-09-04T18:28:06.300Z,3.17
2022-09-04T18:37:06.944Z,3.63
2022-09-04T18:37:20.137Z,3.67
2022-09-04T18:37:23.764Z,2.80
2022-09-04T18:40:03.801Z,4.43
2022-09-04T18:50:20.386Z,3.03
2022-09-04T18:50:24.918Z,2.88
2022-09-04T18:50:37.221Z,3.75
2022-09-04T18:51:31.400Z,3.28
2022-09-04T18:54:11.909Z,3.30
2022-09-04T18:56:45.356Z,3.58
2022-09-04T18:59:20.385Z,3.78
2022-09-04T19:02:00.788Z,3.20
2022-09-04T19:04:52.602Z,3.30
2022-09-04T19:07:32.438Z,3.40
2022-09-04T19:10:17.698Z,3.40
2022-09-04T19:13:01.841Z,3.53
2022-09-04T19:15:45.717Z,3.50
2022-09-04T19:18:27.348Z,5.68
2022-09-04T19:21:23.355Z,4.18
2022-09-04T19:24:01.072Z,3.53
2022-09-04T19:26:42.207Z,3.65
2022-09-04T19:29:19.396Z,3.60
2022-09-04T19:31:58.677Z,3.88
2022-09-04T19:34:39.733Z,3.35
2022-09-04T19:38:15.411Z,3.65
2022-09-04T19:46:05.698Z,6.10
2022-09-04T19:46:17.279Z,3.65
2022-09-04T19:46:31.750Z,3.75
2022-09-04T19:53:19.181Z,3.35
2022-09-04T19:53:22.119Z,3.75
2022-09-04T19:55:25.009Z,3.92
2022-09-04T19:58:07.223Z,3.58
2022-09-04T20:00:44.494Z,3.70
2022-09-04T20:03:29.962Z,4.20
2022-09-04T20:06:09.273Z,3.55
2022-09-04T20:08:58.022Z,3.30
2022-09-04T20:11:35.934Z,4.07
2022-09-04T20:14:15.383Z,3.80
2022-09-04T20:17:00.904Z,3.42
2022-09-04T20:19:42.910Z,3.70
2022-09-04T20:22:29.384Z,3.25
2022-09-04T20:25:29.048Z,3.70
2022-09-04T20:28:15.227Z,3.75
2022-09-04T20:30:49.441Z,3.75
2022-09-04T20:33:24.688Z,4.57
2022-09-04T20:35:59.740Z,4.28
2022-09-04T20:38:42.028Z,7.80
2022-09-04T20:41:19.528Z,4.15
2022-09-04T20:44:03.430Z,4.50
2022-09-04T20:52:42.576Z,6.40
2022-09-04T20:52:43.478Z,6.75
2022-09-04T20:53:07.952Z,5.35
2022-09-04T20:55:52.174Z,4.03
2022-09-04T21:03:12.920Z,5.90
2022-09-04T21:03:26.281Z,3.83
2022-09-04T21:04:48.613Z,3.40
2022-09-04T21:07:29.556Z,4.03
2022-09-04T21:10:12.124Z,3.67
2022-09-04T21:12:47.177Z,3.95
2022-09-04T21:15:37.439Z,4.07
2022-09-04T21:18:31.285Z,3.90
2022-09-04T21:21:22.192Z,3.90
2022-09-04T21:24:42.920Z,4.15
2022-09-04T21:27:35.701Z,5.35
2022-09-04T21:30:10.025Z,3.80
2022-09-04T21:33:26.602Z,3.72
2022-09-04T21:36:26.731Z,3.90
2022-09-04T21:39:39.085Z,3.85
2022-09-04T21:42:47.437Z,3.90
2022-09-04T21:45:32.734Z,3.92
2022-09-04T21:48:24.304Z,4.10
2022-09-04T21:51:17.058Z,4.00
2022-09-04T21:54:37.766Z,3.80
2022-09-04T22:02:29.394Z,4.03
2022-09-04T22:02:36.343Z,3.58
2022-09-04T22:04:23.280Z,3.65
2022-09-04T22:10:06.681Z,3.45
2022-09-04T22:13:38.392Z,3.65
2022-09-04T22:13:46.417Z,3.55
2022-09-04T22:16:30.719Z,4.00
2022-09-04T22:19:23.454Z,4.00
2022-09-04T22:22:20.987Z,5.68
2022-09-04T22:25:17.003Z,4.20
2022-09-04T22:28:46.371Z,3.60
2022-09-04T22:32:02.950Z,3.53
2022-09-04T22:35:20.004Z,4.47
2022-09-04T22:38:26.571Z,4.00
2022-09-04T22:41:12.537Z,3.90
2022-09-04T22:43:47.853Z,4.38
2022-09-04T22:46:44.163Z,3.53
2022-09-04T22:49:48.827Z,4.13
2022-09-04T22:52:42.186Z,4.10
2022-09-04T22:56:08.387Z,3.93
2022-09-04T22:59:26.806Z,4.20
2022-09-04T23:03:07.256Z,4.03
2022-09-04T23:05:46.800Z,4.03
2022-09-04T23:13:44.395Z,4.03
2022-09-04T23:13:58.479Z,4.47
2022-09-04T23:15:10.165Z,3.97
2022-09-04T23:20:51.507Z,4.37
2022-09-04T23:26:39.235Z,3.73
2022-09-04T23:26:44.648Z,3.70
2022-09-04T23:27:46.857Z,4.50
2022-09-04T23:30:25.158Z,3.90
2022-09-04T23:33:42.458Z,4.43
2022-09-04T23:36:41.078Z,4.03
2022-09-04T23:40:05.903Z,4.33
2022-09-04T23:43:20.767Z,3.80
2022-09-04T23:46:31.296Z,3.80
2022-09-04T23:49:32.191Z,3.93
2022-09-04T23:52:13.465Z,3.63
2022-09-04T23:55:17.671Z,4.10
2022-09-04T23:58:21.785Z,4.30
